Terminal Aerodrome Forecast
Issued by NWS

Home | Current Version | Previous Version | Graphics & Text | Print | Product List | Glossary Off
Versions: 1 2 3 4 5 6 7 8 9 10 11 12 13 14

000
FTUS43 KDDC 211720
TAFGCK
TAF
KGCK 211720Z 2118/2218 23012KT P6SM SKC
     FM211900 19015G25KT P6SM SCT120
     FM220000 18010G20KT P6SM BKN120
     FM220600 18009KT P6SM SCT130 WS020/21040KT
     FM221200 18007KT P6SM SCT100
     FM221500 19010G20KT P6SM VCSH BKN100=

USA.gov is the U.S. government's official web portal to all federal, state and local government web resources and services.